Time;durP1;ratioP1;P1;durP2;ratioP2;P2;SDS_P1;SDS_P2;PMS_P1;PMS_P2;Temp;Humidity;BMP_temperature;BMP_pressure;BME280_temperature;BME280_humidity;BME280_pressure;Samples;Min_cycle;Max_cycle;Signal;HPM_P1;HPM_P2
2023/10/05 00:01:30;;;;;;;6.20;1.80;;;;;;;;;;5081630;28;20052;-60
2023/10/05 00:03:58;;;;;;;8.68;2.28;;;;;;;;;;5082316;28;20054;-59
2023/10/05 00:06:24;;;;;;;5.60;1.80;;;;;;;;;;5082200;28;20510;-59
2023/10/05 00:08:55;;;;;;;11.25;2.83;;;;;;;;;;5082152;28;20059;-60
2023/10/05 00:11:23;;;;;;;8.63;2.10;;;;;;;;;;5082876;28;20056;-59
2023/10/05 00:13:50;;;;;;;7.05;1.95;;;;;;;;;;5082497;28;20049;-60
2023/10/05 00:16:22;;;;;;;11.13;2.63;;;;;;;;;;5080346;28;20052;-60
2023/10/05 00:18:49;;;;;;;10.25;2.30;;;;;;;;;;5081489;28;20055;-58
2023/10/05 00:21:20;;;;;;;7.22;2.10;;;;;;;;;;5082475;28;20053;-60
2023/10/05 00:23:52;;;;;;;7.82;1.83;;;;;;;;;;5082781;28;20048;-60
2023/10/05 00:26:20;;;;;;;7.68;2.20;;;;;;;;;;5082861;28;20460;-60
2023/10/05 00:29:00;;;;;;;10.05;2.35;;;;;;;;;;5082684;28;20079;-60
2023/10/05 00:31:27;;;;;;;8.95;1.90;;;;;;;;;;5080516;28;20696;-59
2023/10/05 00:33:57;;;;;;;10.68;2.10;;;;;;;;;;5082371;28;20045;-60
2023/10/05 00:36:33;;;;;;;6.78;2.20;;;;;;;;;;5073923;28;20115;-60
2023/10/05 00:39:01;;;;;;;6.20;1.95;;;;;;;;;;5062442;28;20054;-60
2023/10/05 00:41:28;;;;;;;7.38;1.98;;;;;;;;;;5061373;28;20057;-59
2023/10/05 00:43:55;;;;;;;13.25;2.25;;;;;;;;;;5066132;28;20053;-57
2023/10/05 00:46:23;;;;;;;12.85;2.42;;;;;;;;;;5081732;28;20470;-60
2023/10/05 00:49:12;;;;;;;10.80;3.03;;;;;;;;;;5082154;28;20141;-60
2023/10/05 00:51:44;;;;;;;7.40;2.10;;;;;;;;;;5080573;28;20087;-60
2023/10/05 00:54:14;;;;;;;8.02;2.38;;;;;;;;;;5083156;28;20140;-59
2023/10/05 00:56:41;;;;;;;8.18;2.10;;;;;;;;;;5085106;28;20057;-59
2023/10/05 00:59:10;;;;;;;10.52;1.67;;;;;;;;;;5085918;28;20057;-60
2023/10/05 01:07:24;;;;;;;7.38;1.73;;;;;;;;;;5065476;28;20494;-59
2023/10/05 01:14:52;;;;;;;9.00;1.90;;;;;;;;;;5067604;28;20599;-59
2023/10/05 01:17:26;;;;;;;8.98;1.92;;;;;;;;;;5077132;28;20722;-58
2023/10/05 01:19:55;;;;;;;6.90;2.00;;;;;;;;;;5064747;28;20458;-58
2023/10/05 01:22:32;;;;;;;12.07;2.58;;;;;;;;;;5065198;28;20663;-59
2023/10/05 01:25:04;;;;;;;14.18;2.20;;;;;;;;;;5064723;28;20057;-58
2023/10/05 01:27:36;;;;;;;9.00;1.98;;;;;;;;;;5084846;28;20062;-60
2023/10/05 01:30:03;;;;;;;8.48;1.80;;;;;;;;;;5081850;28;20045;-60
2023/10/05 01:32:32;;;;;;;8.80;3.22;;;;;;;;;;5079911;28;20052;-59
2023/10/05 01:35:00;;;;;;;7.90;2.28;;;;;;;;;;5065046;28;20515;-60
2023/10/05 01:37:33;;;;;;;8.30;1.92;;;;;;;;;;5065043;28;20590;-60
2023/10/05 01:40:01;;;;;;;6.63;1.85;;;;;;;;;;5066665;28;20045;-60
2023/10/05 01:42:30;;;;;;;7.28;2.22;;;;;;;;;;5084893;28;20145;-59
2023/10/05 01:44:59;;;;;;;8.40;2.20;;;;;;;;;;5073359;28;20136;-60
2023/10/05 01:47:26;;;;;;;4.97;1.75;;;;;;;;;;5072113;28;20498;-59
2023/10/05 01:49:53;;;;;;;11.18;2.10;;;;;;;;;;5064330;28;20546;-59
2023/10/05 01:52:20;;;;;;;9.55;2.53;;;;;;;;;;5064677;28;20099;-59
2023/10/05 01:54:47;;;;;;;10.10;1.75;;;;;;;;;;5064310;28;20518;-60
2023/10/05 01:57:16;;;;;;;5.32;1.73;;;;;;;;;;5064536;28;20057;-59
2023/10/05 01:59:43;;;;;;;10.85;2.53;;;;;;;;;;5064918;28;20466;-60
2023/10/05 02:02:10;;;;;;;8.10;2.13;;;;;;;;;;5084289;28;20076;-60
2023/10/05 02:04:39;;;;;;;10.45;2.35;;;;;;;;;;5085021;28;20056;-60
2023/10/05 02:07:05;;;;;;;9.27;2.03;;;;;;;;;;5084551;28;20044;-60
2023/10/05 02:09:32;;;;;;;6.85;1.70;;;;;;;;;;5084241;28;20433;-59
2023/10/05 02:12:03;;;;;;;6.80;2.15;;;;;;;;;;5084431;28;20606;-60
2023/10/05 02:14:30;;;;;;;13.60;1.70;;;;;;;;;;5065414;28;20057;-60
2023/10/05 02:16:57;;;;;;;8.60;2.10;;;;;;;;;;5067670;28;20739;-60
2023/10/05 02:19:23;;;;;;;7.32;1.95;;;;;;;;;;5083683;28;20052;-58
2023/10/05 02:21:54;;;;;;;9.27;2.22;;;;;;;;;;5083853;28;20059;-59
2023/10/05 02:24:26;;;;;;;11.65;2.58;;;;;;;;;;5084300;28;20053;-60
2023/10/05 02:29:26;;;;;;;10.30;2.13;;;;;;;;;;5082658;28;20626;-59
2023/10/05 02:34:39;;;;;;;10.23;2.67;;;;;;;;;;5083857;28;20053;-58
2023/10/05 02:37:07;;;;;;;9.35;2.03;;;;;;;;;;5084074;28;20154;-59
2023/10/05 02:39:37;;;;;;;8.77;2.13;;;;;;;;;;5083754;28;20123;-60
2023/10/05 02:42:11;;;;;;;8.05;2.50;;;;;;;;;;5083954;28;20113;-60
2023/10/05 02:44:38;;;;;;;9.27;2.25;;;;;;;;;;5070827;28;20588;-59
2023/10/05 02:47:13;;;;;;;13.98;2.97;;;;;;;;;;5081303;28;20055;-60
2023/10/05 02:49:43;;;;;;;6.70;1.75;;;;;;;;;;5081021;28;20127;-59
2023/10/05 02:52:13;;;;;;;7.53;2.30;;;;;;;;;;5077929;28;20056;-60
2023/10/05 02:54:40;;;;;;;8.90;2.15;;;;;;;;;;5071808;28;20045;-60
2023/10/05 02:57:07;;;;;;;15.38;3.00;;;;;;;;;;5069124;28;20057;-60
2023/10/05 02:59:34;;;;;;;13.75;2.38;;;;;;;;;;5083557;28;20064;-60
2023/10/05 03:02:06;;;;;;;9.15;2.42;;;;;;;;;;5083100;28;20121;-58
2023/10/05 03:04:47;;;;;;;9.43;2.25;;;;;;;;;;5083675;28;20107;-59
2023/10/05 03:07:15;;;;;;;8.95;2.38;;;;;;;;;;5083702;28;20063;-59
2023/10/05 03:09:43;;;;;;;8.13;2.20;;;;;;;;;;5082953;28;20498;-60
2023/10/05 03:12:12;;;;;;;9.68;2.30;;;;;;;;;;5083319;28;20055;-59
2023/10/05 03:14:45;;;;;;;9.48;2.42;;;;;;;;;;5083089;28;20087;-59
2023/10/05 03:17:19;;;;;;;14.73;3.13;;;;;;;;;;5082083;28;20508;-59
2023/10/05 03:19:45;;;;;;;11.90;2.53;;;;;;;;;;5083368;28;20118;-60
2023/10/05 03:22:12;;;;;;;6.40;2.20;;;;;;;;;;5082945;28;20624;-59
2023/10/05 03:24:45;;;;;;;10.48;2.20;;;;;;;;;;5082834;28;20491;-60
2023/10/05 03:27:11;;;;;;;10.93;2.30;;;;;;;;;;5082722;28;20433;-60
2023/10/05 03:29:38;;;;;;;7.35;2.00;;;;;;;;;;5081954;28;20519;-59
2023/10/05 03:32:13;;;;;;;11.18;2.65;;;;;;;;;;5083286;28;20063;-59
2023/10/05 03:34:42;;;;;;;;;;;;;;;;;;5082256;28;20052;-57
2023/10/05 03:37:13;;;;;;;7.30;1.98;;;;;;;;;;5082120;28;43856;-59
2023/10/05 03:39:53;;;;;;;8.80;2.35;;;;;;;;;;5082871;28;20056;-59
2023/10/05 03:42:23;;;;;;;6.95;2.20;;;;;;;;;;5083128;28;20506;-59
2023/10/05 03:45:03;;;;;;;8.20;1.58;;;;;;;;;;5072645;28;20500;-59
2023/10/05 03:47:31;;;;;;;11.85;2.50;;;;;;;;;;5088334;27;20154;-59
2023/10/05 03:49:57;;;;;;;6.00;1.85;;;;;;;;;;5069595;28;20641;-58
2023/10/05 03:52:32;;;;;;;6.97;1.80;;;;;;;;;;5068016;28;20060;-59
2023/10/05 03:55:33;;;;;;;11.80;2.80;;;;;;;;;;5062540;28;20061;-59
2023/10/05 03:57:53;;;;;;;4.03;2.08;;;;;;;;;;5076200;28;20056;-60
2023/10/05 04:02:52;;;;;;;10.27;2.42;;;;;;;;;;5082322;28;20596;-58
2023/10/05 04:05:21;;;;;;;8.20;2.10;;;;;;;;;;5082576;28;20115;-59
2023/10/05 04:07:49;;;;;;;7.07;2.22;;;;;;;;;;5081885;28;20049;-59
2023/10/05 04:10:21;;;;;;;17.08;2.53;;;;;;;;;;5082853;28;20095;-59
2023/10/05 04:12:51;;;;;;;8.27;2.22;;;;;;;;;;5083070;28;20076;-59
2023/10/05 04:15:20;;;;;;;9.45;2.17;;;;;;;;;;5082775;28;20565;-60
2023/10/05 04:17:49;;;;;;;7.07;2.20;;;;;;;;;;5082900;28;20051;-59
2023/10/05 04:20:34;;;;;;;9.38;2.22;;;;;;;;;;5068532;28;20518;-59
2023/10/05 04:23:01;;;;;;;10.65;2.40;;;;;;;;;;5062570;28;20049;-60
2023/10/05 04:25:27;;;;;;;7.22;2.42;;;;;;;;;;5060241;28;20060;-59
2023/10/05 04:27:54;;;;;;;8.32;2.00;;;;;;;;;;5071182;28;20556;-59
2023/10/05 04:30:21;;;;;;;10.30;2.67;;;;;;;;;;5084667;28;20064;-59
2023/10/05 04:32:48;;;;;;;11.93;2.55;;;;;;;;;;5079459;28;20100;-60
2023/10/05 04:35:28;;;;;;;8.13;2.20;;;;;;;;;;5078838;28;20139;-59
2023/10/05 04:37:56;;;;;;;10.57;2.38;;;;;;;;;;5085514;28;20087;-59
2023/10/05 04:40:24;;;;;;;10.48;2.97;;;;;;;;;;5086184;28;20063;-59
2023/10/05 04:42:52;;;;;;;8.50;1.90;;;;;;;;;;5085655;28;20049;-60
2023/10/05 04:45:20;;;;;;;10.80;2.15;;;;;;;;;;5080260;28;20049;-60
2023/10/05 04:47:48;;;;;;;11.20;2.55;;;;;;;;;;5072220;28;20063;-59
2023/10/05 04:50:17;;;;;;;9.82;2.45;;;;;;;;;;5079804;28;20060;-60
2023/10/05 04:52:45;;;;;;;11.90;2.83;;;;;;;;;;5084291;28;20056;-60
2023/10/05 04:55:18;;;;;;;6.97;2.20;;;;;;;;;;5085609;28;20052;-59
2023/10/05 05:08:38;;;;;;;8.02;2.75;;;;;;;;;;5064883;28;20136;-59
2023/10/05 05:11:11;;;;;;;9.07;2.45;;;;;;;;;;5064275;28;20136;-59
2023/10/05 05:13:38;;;;;;;7.40;2.83;;;;;;;;;;5073983;28;20052;-58
2023/10/05 05:16:05;;;;;;;7.47;3.03;;;;;;;;;;5085411;28;20511;-59
2023/10/05 05:18:32;;;;;;;10.82;2.38;;;;;;;;;;5085186;28;20055;-59
2023/10/05 05:20:59;;;;;;;13.65;2.70;;;;;;;;;;5084655;28;20503;-59
2023/10/05 05:23:25;;;;;;;5.68;2.15;;;;;;;;;;5084632;28;20424;-59
2023/10/05 05:25:52;;;;;;;8.40;2.50;;;;;;;;;;5085057;28;20048;-59
2023/10/05 05:28:19;;;;;;;10.25;3.00;;;;;;;;;;5072764;28;20076;-60
2023/10/05 05:30:47;;;;;;;7.93;2.97;;;;;;;;;;5073654;28;20053;-60
2023/10/05 05:33:13;;;;;;;9.93;2.65;;;;;;;;;;5064356;28;20099;-59
2023/10/05 05:35:40;;;;;;;7.18;2.22;;;;;;;;;;5068833;28;21556;-59
2023/10/05 05:38:09;;;;;;;10.38;2.35;;;;;;;;;;5083864;28;20211;-60
2023/10/05 05:40:37;;;;;;;8.63;2.40;;;;;;;;;;5071527;28;20594;-59
2023/10/05 05:43:08;;;;;;;8.63;3.00;;;;;;;;;;5083748;28;20530;-59
2023/10/05 05:45:35;;;;;;;10.32;3.45;;;;;;;;;;5079688;28;20429;-59
2023/10/05 05:48:08;;;;;;;8.63;2.78;;;;;;;;;;5063999;28;20059;-60
2023/10/05 05:50:39;;;;;;;12.65;3.22;;;;;;;;;;5071664;28;20063;-60
2023/10/05 05:53:07;;;;;;;6.72;3.15;;;;;;;;;;5084605;28;20530;-59
2023/10/05 05:55:33;;;;;;;8.63;2.75;;;;;;;;;;5083749;28;20533;-59
2023/10/05 05:58:00;;;;;;;14.30;3.35;;;;;;;;;;5083387;28;20053;-59
2023/10/05 06:00:28;;;;;;;14.85;2.90;;;;;;;;;;5072109;28;20148;-59
2023/10/05 06:02:55;;;;;;;8.70;2.65;;;;;;;;;;5075096;28;20052;-59
2023/10/05 06:05:25;;;;;;;9.48;2.72;;;;;;;;;;5065803;28;20056;-59
2023/10/05 06:07:51;;;;;;;6.57;3.13;;;;;;;;;;5063686;28;20538;-60
2023/10/05 06:10:25;;;;;;;9.70;3.50;;;;;;;;;;5067116;28;20053;-59
2023/10/05 06:12:52;;;;;;;10.35;3.20;;;;;;;;;;5064227;28;20056;-59
2023/10/05 06:15:20;;;;;;;7.35;2.75;;;;;;;;;;5068737;28;20052;-59
2023/10/05 06:17:47;;;;;;;8.65;3.00;;;;;;;;;;5083677;28;20775;-59
2023/10/05 06:20:14;;;;;;;13.73;2.90;;;;;;;;;;5082793;28;20577;-60
2023/10/05 06:22:44;;;;;;;7.07;2.55;;;;;;;;;;5083564;28;20057;-59
2023/10/05 06:25:18;;;;;;;8.98;3.05;;;;;;;;;;5082654;28;20045;-59
2023/10/05 06:27:44;;;;;;;6.95;2.60;;;;;;;;;;5083234;28;20087;-59
2023/10/05 06:30:11;;;;;;;8.57;2.88;;;;;;;;;;5067575;28;20150;-59
2023/10/05 06:32:38;;;;;;;7.53;2.60;;;;;;;;;;5082526;28;20076;-57
2023/10/05 06:35:08;;;;;;;12.02;2.92;;;;;;;;;;5083454;28;20060;-59
2023/10/05 06:37:38;;;;;;;9.60;3.10;;;;;;;;;;5083049;28;20048;-60
2023/10/05 06:40:21;;;;;;;12.02;3.92;;;;;;;;;;5077364;28;20419;-59
2023/10/05 06:42:51;;;;;;;14.13;3.50;;;;;;;;;;5074034;28;20670;-59
2023/10/05 06:45:23;;;;;;;10.50;2.65;;;;;;;;;;5063513;28;20514;-59
2023/10/05 06:47:50;;;;;;;11.38;3.53;;;;;;;;;;5069854;28;20102;-60
2023/10/05 06:50:17;;;;;;;12.95;3.45;;;;;;;;;;5080666;28;20059;-59
2023/10/05 06:52:46;;;;;;;17.92;3.33;;;;;;;;;;5061891;28;20547;-60
2023/10/05 06:55:14;;;;;;;11.35;3.33;;;;;;;;;;5065866;28;20531;-59
2023/10/05 06:57:44;;;;;;;11.35;3.53;;;;;;;;;;5080928;28;20517;-60
2023/10/05 07:00:12;;;;;;;7.60;3.20;;;;;;;;;;5071919;28;20096;-60
2023/10/05 07:02:39;;;;;;;9.27;3.30;;;;;;;;;;5063727;28;20053;-59
2023/10/05 07:05:08;;;;;;;8.90;3.08;;;;;;;;;;5078121;28;20153;-60
2023/10/05 07:07:35;;;;;;;10.55;3.28;;;;;;;;;;5082947;28;20479;-60
2023/10/05 07:10:06;;;;;;;7.68;2.92;;;;;;;;;;5082711;28;20053;-59
2023/10/05 07:12:38;;;;;;;11.82;3.17;;;;;;;;;;5081869;28;20550;-60
2023/10/05 07:15:05;;;;;;;9.43;2.97;;;;;;;;;;5063258;28;20048;-59
2023/10/05 07:17:32;;;;;;;8.15;3.33;;;;;;;;;;5061735;28;20056;-59
2023/10/05 07:19:59;;;;;;;14.32;3.78;;;;;;;;;;5062302;28;20045;-60
2023/10/05 07:22:25;;;;;;;10.55;3.88;;;;;;;;;;5069776;28;20061;-59
2023/10/05 07:24:52;;;;;;;6.72;3.10;;;;;;;;;;5062627;28;20134;-59
2023/10/05 07:27:18;;;;;;;16.10;3.42;;;;;;;;;;5062766;28;20119;-60
2023/10/05 07:29:45;;;;;;;10.15;3.05;;;;;;;;;;5062009;28;20522;-59
2023/10/05 07:32:15;;;;;;;11.98;3.10;;;;;;;;;;5065470;28;20057;-58
2023/10/05 07:34:41;;;;;;;7.35;3.05;;;;;;;;;;5080702;28;20149;-60
2023/10/05 07:37:10;;;;;;;11.10;3.28;;;;;;;;;;5082392;28;20133;-58
2023/10/05 07:39:43;;;;;;;8.55;2.47;;;;;;;;;;5082311;28;20080;-60
2023/10/05 07:42:10;;;;;;;10.75;3.40;;;;;;;;;;5081676;28;20048;-58
2023/10/05 07:44:37;;;;;;;11.70;3.20;;;;;;;;;;5073479;28;20059;-60
2023/10/05 07:47:07;;;;;;;9.85;3.60;;;;;;;;;;5067440;28;20056;-59
2023/10/05 07:49:34;;;;;;;16.20;3.47;;;;;;;;;;5073144;28;20167;-59
2023/10/05 07:52:02;;;;;;;11.70;3.28;;;;;;;;;;5066158;28;20472;-60
2023/10/05 07:54:29;;;;;;;5.13;2.40;;;;;;;;;;5060306;28;20057;-60
2023/10/05 07:56:56;;;;;;;14.20;3.78;;;;;;;;;;5077935;28;20057;-60
2023/10/05 07:59:23;;;;;;;6.47;2.78;;;;;;;;;;5061512;28;20407;-59
2023/10/05 08:01:52;;;;;;;7.90;2.97;;;;;;;;;;5078881;28;20590;-59
2023/10/05 08:04:19;;;;;;;10.00;2.47;;;;;;;;;;5084789;28;20515;-58
2023/10/05 08:06:46;;;;;;;8.25;3.22;;;;;;;;;;5080937;28;20420;-59
2023/10/05 08:09:15;;;;;;;10.93;3.92;;;;;;;;;;5085804;28;20495;-60
2023/10/05 08:11:43;;;;;;;11.55;2.95;;;;;;;;;;5082392;28;20165;-59
2023/10/05 08:14:11;;;;;;;11.20;2.75;;;;;;;;;;5075563;28;20060;-59
2023/10/05 08:16:38;;;;;;;13.60;3.35;;;;;;;;;;5068726;28;20148;-60
2023/10/05 08:19:05;;;;;;;11.65;2.90;;;;;;;;;;5084609;28;20515;-60
2023/10/05 08:21:32;;;;;;;8.35;2.92;;;;;;;;;;5085476;28;20052;-59
2023/10/05 08:23:58;;;;;;;11.65;3.00;;;;;;;;;;5085753;28;20354;-59
2023/10/05 08:26:28;;;;;;;7.65;2.95;;;;;;;;;;5072860;28;20150;-60
2023/10/05 08:28:56;;;;;;;7.13;2.90;;;;;;;;;;5071775;28;20126;-60
2023/10/05 08:31:25;;;;;;;11.15;3.10;;;;;;;;;;5066193;28;20055;-60
2023/10/05 08:33:53;;;;;;;11.93;2.47;;;;;;;;;;5064877;28;20438;-60
2023/10/05 08:36:23;;;;;;;10.70;3.17;;;;;;;;;;5065106;28;20063;-59
2023/10/05 08:38:50;;;;;;;14.73;3.70;;;;;;;;;;5080982;28;20744;-59
2023/10/05 08:41:31;;;;;;;11.52;3.83;;;;;;;;;;5069434;28;20103;-59
2023/10/05 08:44:06;;;;;;;11.63;2.83;;;;;;;;;;5080032;28;20660;-59
2023/10/05 08:46:52;;;;;;;11.15;3.53;;;;;;;;;;5082980;28;20052;-60
2023/10/05 08:49:19;;;;;;;8.70;2.30;;;;;;;;;;5083474;28;20495;-60
2023/10/05 08:51:45;;;;;;;12.77;2.92;;;;;;;;;;5084481;28;20222;-60
2023/10/05 08:54:27;;;;;;;16.25;3.13;;;;;;;;;;5086492;28;20056;-60
2023/10/05 08:56:57;;;;;;;10.20;2.90;;;;;;;;;;5084152;28;20057;-59
2023/10/05 08:59:26;;;;;;;7.03;2.75;;;;;;;;;;5063790;28;20053;-60
2023/10/05 09:01:53;;;;;;;13.95;2.65;;;;;;;;;;5067806;28;20060;-60
2023/10/05 09:04:43;;;;;;;10.00;2.83;;;;;;;;;;5084877;28;20084;-60
2023/10/05 09:07:25;;;;;;;8.40;2.58;;;;;;;;;;5072078;28;20056;-59
2023/10/05 09:09:54;;;;;;;9.07;2.60;;;;;;;;;;5074527;28;20126;-60
2023/10/05 09:12:37;;;;;;;10.18;3.10;;;;;;;;;;5084685;28;20055;-59
2023/10/05 09:15:18;;;;;;;10.77;2.70;;;;;;;;;;5079192;28;20063;-59
2023/10/05 09:17:57;;;;;;;10.38;2.25;;;;;;;;;;5071946;28;20499;-59
2023/10/05 09:20:30;;;;;;;6.03;2.22;;;;;;;;;;5063909;28;20053;-59
2023/10/05 09:22:57;;;;;;;8.50;2.30;;;;;;;;;;5064646;28;20538;-60
2023/10/05 09:25:27;;;;;;;8.43;2.50;;;;;;;;;;5063921;28;20053;-59
2023/10/05 09:27:57;;;;;;;12.90;2.22;;;;;;;;;;5073945;28;20052;-60
2023/10/05 09:30:29;;;;;;;11.63;2.85;;;;;;;;;;5080930;28;20549;-59
2023/10/05 09:33:06;;;;;;;6.18;1.88;;;;;;;;;;5073346;28;20523;-59
2023/10/05 09:35:33;;;;;;;7.80;2.20;;;;;;;;;;5064045;28;20053;-58
2023/10/05 09:38:00;;;;;;;7.18;2.40;;;;;;;;;;5071390;28;20446;-59
2023/10/05 09:40:28;;;;;;;8.70;2.40;;;;;;;;;;5082557;28;20053;-59
2023/10/05 09:42:55;;;;;;;5.88;2.33;;;;;;;;;;5083422;28;20056;-59
2023/10/05 09:45:25;;;;;;;6.97;2.45;;;;;;;;;;5078700;28;20064;-60
2023/10/05 09:47:53;;;;;;;10.48;2.72;;;;;;;;;;5083573;28;20515;-59
2023/10/05 09:50:21;;;;;;;5.80;2.55;;;;;;;;;;5084413;28;20510;-57
2023/10/05 09:52:48;;;;;;;11.63;3.15;;;;;;;;;;5083651;28;20412;-59
2023/10/05 09:55:19;;;;;;;11.05;2.67;;;;;;;;;;5069754;28;20139;-59
2023/10/05 09:57:46;;;;;;;10.75;2.45;;;;;;;;;;5064548;28;20496;-59
2023/10/05 10:00:29;;;;;;;9.05;2.78;;;;;;;;;;5063791;28;20107;-59
2023/10/05 10:02:57;;;;;;;6.43;2.53;;;;;;;;;;5063843;28;20060;-60
2023/10/05 10:05:30;;;;;;;8.82;2.50;;;;;;;;;;5063379;28;20087;-59
2023/10/05 10:07:59;;;;;;;10.25;2.42;;;;;;;;;;5073703;28;20052;-60
2023/10/05 10:10:29;;;;;;;6.10;2.15;;;;;;;;;;5082493;28;20049;-59
2023/10/05 10:12:56;;;;;;;8.18;2.78;;;;;;;;;;5083307;28;20143;-59
2023/10/05 10:15:28;;;;;;;11.65;3.50;;;;;;;;;;5067225;28;20444;-59
2023/10/05 10:18:03;;;;;;;8.60;2.72;;;;;;;;;;5070746;28;20052;-59
2023/10/05 10:20:38;;;;;;;19.70;4.03;;;;;;;;;;5077828;28;20543;-59
2023/10/05 10:23:21;;;;;;;10.43;2.53;;;;;;;;;;5065698;28;20076;-59
2023/10/05 10:25:51;;;;;;;11.93;2.58;;;;;;;;;;5082879;28;20083;-59
2023/10/05 10:31:42;;;;;;;7.93;2.10;;;;;;;;;;5059668;28;20530;-58
2023/10/05 10:34:12;;;;;;;11.80;3.22;;;;;;;;;;5061284;28;20574;-59
2023/10/05 10:36:47;;;;;;;16.45;2.00;;;;;;;;;;5059155;28;20424;-57
2023/10/05 10:39:23;;;;;;;10.88;2.90;;;;;;;;;;5060050;28;20547;-58
2023/10/05 10:42:01;;;;;;;13.35;2.45;;;;;;;;;;5058463;28;20594;-58
2023/10/05 10:44:28;;;;;;;10.02;3.10;;;;;;;;;;5059947;28;20060;-59
2023/10/05 10:47:08;;;;;;;5.18;2.00;;;;;;;;;;5056385;28;20103;-59
2023/10/05 10:49:39;;;;;;;12.35;3.33;;;;;;;;;;5051792;28;20522;-59
2023/10/05 10:52:09;;;;;;;12.05;2.90;;;;;;;;;;5046444;28;20061;-57
2023/10/05 10:54:45;;;;;;;6.05;1.90;;;;;;;;;;5048771;28;20048;-60
2023/10/05 10:57:21;;;;;;;12.15;2.70;;;;;;;;;;5044607;28;20086;-60
2023/10/05 11:00:18;;;;;;;8.43;2.20;;;;;;;;;;5046904;28;20048;-59
2023/10/05 11:02:38;;;;;;;8.98;2.35;;;;;;;;;;5054402;28;20049;-60
2023/10/05 11:05:05;;;;;;;5.57;2.33;;;;;;;;;;5075945;28;20134;-60
2023/10/05 11:07:34;;;;;;;13.68;2.80;;;;;;;;;;5071182;28;20461;-59
2023/10/05 11:10:06;;;;;;;8.50;2.65;;;;;;;;;;5063081;28;20128;-60
2023/10/05 11:12:42;;;;;;;9.77;2.67;;;;;;;;;;5065811;28;20052;-60
2023/10/05 11:15:11;;;;;;;7.45;2.15;;;;;;;;;;5068422;28;20053;-59
2023/10/05 11:17:44;;;;;;;4.60;1.92;;;;;;;;;;5062761;28;20076;-60
2023/10/05 11:20:24;;;;;;;10.52;3.35;;;;;;;;;;5079481;28;20130;-60
2023/10/05 11:22:59;;;;;;;9.90;2.33;;;;;;;;;;5082307;28;20584;-60
2023/10/05 11:25:35;;;;;;;12.23;2.50;;;;;;;;;;5081675;28;20660;-59
2023/10/05 11:28:08;;;;;;;14.32;2.67;;;;;;;;;;5066688;28;20137;-60
2023/10/05 11:30:47;;;;;;;7.20;2.33;;;;;;;;;;5081434;28;20472;-59
2023/10/05 11:33:34;;;;;;;8.32;2.38;;;;;;;;;;5080663;28;20056;-60
2023/10/05 11:36:22;;;;;;;9.25;2.72;;;;;;;;;;5079257;28;20082;-59
2023/10/05 11:38:49;;;;;;;9.02;2.22;;;;;;;;;;5081602;28;20049;-58
2023/10/05 11:41:23;;;;;;;11.40;2.83;;;;;;;;;;5080613;28;20052;-60
2023/10/05 11:43:52;;;;;;;11.07;2.92;;;;;;;;;;5081983;28;20619;-59
2023/10/05 11:46:26;;;;;;;6.45;2.15;;;;;;;;;;5081112;28;20129;-59
2023/10/05 11:48:56;;;;;;;10.40;2.28;;;;;;;;;;5079201;28;20056;-59
2023/10/05 11:51:42;;;;;;;8.48;2.40;;;;;;;;;;5082208;28;20519;-58
2023/10/05 11:54:09;;;;;;;7.82;2.47;;;;;;;;;;5081689;28;20098;-59
2023/10/05 11:56:38;;;;;;;10.73;2.72;;;;;;;;;;5080687;28;20056;-59
2023/10/05 11:59:10;;;;;;;8.70;1.98;;;;;;;;;;5082055;28;20110;-59
2023/10/05 12:01:40;;;;;;;6.35;2.55;;;;;;;;;;5077682;28;20150;-59
2023/10/05 12:04:08;;;;;;;7.47;2.90;;;;;;;;;;5077443;28;20173;-60
2023/10/05 12:06:39;;;;;;;10.65;2.78;;;;;;;;;;5076484;28;20058;-58
2023/10/05 12:09:27;;;;;;;9.05;2.72;;;;;;;;;;5072497;28;20083;-59
2023/10/05 12:11:58;;;;;;;10.45;2.47;;;;;;;;;;5061755;28;20053;-59
2023/10/05 12:14:27;;;;;;;12.75;3.20;;;;;;;;;;5073663;28;20087;-60
2023/10/05 12:16:56;;;;;;;12.63;3.45;;;;;;;;;;5064728;28;20057;-60
2023/10/05 12:19:29;;;;;;;10.55;2.75;;;;;;;;;;5061688;28;20138;-59
2023/10/05 12:21:56;;;;;;;12.45;3.03;;;;;;;;;;5064947;28;20557;-60
2023/10/05 12:24:23;;;;;;;7.55;2.53;;;;;;;;;;5061153;28;20569;-60
2023/10/05 12:26:50;;;;;;;7.05;2.60;;;;;;;;;;5062611;28;20049;-60
2023/10/05 12:29:17;;;;;;;9.77;3.03;;;;;;;;;;5080406;28;20536;-60
2023/10/05 12:31:49;;;;;;;11.85;2.90;;;;;;;;;;5079370;28;20507;-60
2023/10/05 12:34:16;;;;;;;7.65;2.58;;;;;;;;;;5082152;28;20088;-59
2023/10/05 12:36:49;;;;;;;8.35;2.90;;;;;;;;;;5081705;28;20060;-60
2023/10/05 12:39:20;;;;;;;8.18;2.70;;;;;;;;;;5079614;28;20084;-60
2023/10/05 12:41:47;;;;;;;11.50;3.53;;;;;;;;;;5081622;28;20052;-60
2023/10/05 12:44:15;;;;;;;10.05;2.63;;;;;;;;;;5081745;28;20126;-60
2023/10/05 12:46:47;;;;;;;9.02;2.53;;;;;;;;;;5081630;28;20590;-59
2023/10/05 12:49:15;;;;;;;11.05;3.13;;;;;;;;;;5063183;28;20545;-60
2023/10/05 12:51:42;;;;;;;8.40;2.38;;;;;;;;;;5063970;28;20057;-60
2023/10/05 12:54:09;;;;;;;8.57;2.83;;;;;;;;;;5065088;28;20602;-59
2023/10/05 12:56:38;;;;;;;9.40;2.55;;;;;;;;;;5064904;28;20499;-60
2023/10/05 12:59:07;;;;;;;8.57;2.92;;;;;;;;;;5079395;28;20048;-59
2023/10/05 13:01:35;;;;;;;7.60;3.08;;;;;;;;;;5084237;28;20058;-60
2023/10/05 13:04:05;;;;;;;9.88;2.70;;;;;;;;;;5083508;28;20136;-60
2023/10/05 13:06:35;;;;;;;10.30;2.00;;;;;;;;;;5083038;28;20079;-59
2023/10/05 13:09:03;;;;;;;8.35;2.63;;;;;;;;;;5086314;28;20573;-60
2023/10/05 13:11:31;;;;;;;10.23;2.92;;;;;;;;;;5065902;28;20422;-60
2023/10/05 13:13:57;;;;;;;9.77;2.28;;;;;;;;;;5064002;28;20431;-60
2023/10/05 13:16:23;;;;;;;12.77;2.97;;;;;;;;;;5064561;28;20135;-60
2023/10/05 13:18:50;;;;;;;7.38;2.63;;;;;;;;;;5073770;28;20048;-60
2023/10/05 13:21:16;;;;;;;9.90;2.85;;;;;;;;;;5084688;28;20096;-60
2023/10/05 13:23:43;;;;;;;11.43;2.95;;;;;;;;;;5084457;28;20095;-60
2023/10/05 13:26:10;;;;;;;6.90;2.47;;;;;;;;;;5084729;28;20056;-59
2023/10/05 13:28:36;;;;;;;11.13;3.15;;;;;;;;;;5084548;28;20052;-60
2023/10/05 13:31:06;;;;;;;7.85;2.60;;;;;;;;;;5084481;28;20060;-60
2023/10/05 13:33:48;;;;;;;7.38;2.10;;;;;;;;;;5080242;28;20101;-60
2023/10/05 13:36:14;;;;;;;11.05;3.17;;;;;;;;;;5079220;28;20057;-60
2023/10/05 13:38:43;;;;;;;9.93;2.50;;;;;;;;;;5063700;28;20053;-60
2023/10/05 13:41:19;;;;;;;5.13;2.13;;;;;;;;;;5077592;28;20110;-61
2023/10/05 13:43:47;;;;;;;7.13;2.33;;;;;;;;;;5084247;28;20048;-60
2023/10/05 13:46:19;;;;;;;7.50;2.65;;;;;;;;;;5084527;28;20056;-60
2023/10/05 13:48:53;;;;;;;3.20;1.83;;;;;;;;;;5079252;28;20535;-60
2023/10/05 13:51:22;;;;;;;11.30;2.70;;;;;;;;;;5065885;28;20057;-60
2023/10/05 13:53:56;;;;;;;7.65;2.45;;;;;;;;;;5082480;28;20110;-60
2023/10/05 13:56:31;;;;;;;11.95;3.33;;;;;;;;;;5072735;28;20499;-60
2023/10/05 13:59:05;;;;;;;10.57;2.20;;;;;;;;;;5063987;28;20053;-60
2023/10/05 14:01:43;;;;;;;10.63;3.05;;;;;;;;;;5064894;28;20488;-60
2023/10/05 14:04:12;;;;;;;8.30;2.45;;;;;;;;;;5063569;28;20057;-60
2023/10/05 14:06:39;;;;;;;9.43;2.40;;;;;;;;;;5082695;28;20045;-59
2023/10/05 14:09:06;;;;;;;8.32;2.47;;;;;;;;;;5074151;28;20048;-60
2023/10/05 14:11:38;;;;;;;7.90;2.80;;;;;;;;;;5083691;28;20048;-60
2023/10/05 14:14:05;;;;;;;7.55;3.08;;;;;;;;;;5084038;28;20133;-58
2023/10/05 14:16:50;;;;;;;8.90;2.65;;;;;;;;;;5084139;28;20474;-60
2023/10/05 14:19:17;;;;;;;7.38;2.90;;;;;;;;;;5081546;28;20060;-59
2023/10/05 14:21:44;;;;;;;7.22;2.60;;;;;;;;;;5083530;28;20593;-60
2023/10/05 14:24:12;;;;;;;5.68;1.95;;;;;;;;;;5097275;28;20599;-60
2023/10/05 14:26:44;;;;;;;5.30;2.10;;;;;;;;;;5085588;27;20057;-60
2023/10/05 14:29:12;;;;;;;7.47;2.45;;;;;;;;;;5084140;28;20064;-59
2023/10/05 14:31:39;;;;;;;5.05;2.08;;;;;;;;;;5070800;28;20544;-60
2023/10/05 14:34:06;;;;;;;8.88;2.97;;;;;;;;;;5074586;28;20515;-58
2023/10/05 14:36:35;;;;;;;9.48;2.97;;;;;;;;;;5082650;28;20048;-61
2023/10/05 14:39:18;;;;;;;8.63;2.70;;;;;;;;;;5091989;28;20564;-60
2023/10/05 14:41:45;;;;;;;8.05;2.17;;;;;;;;;;5078685;28;20130;-59
2023/10/05 14:44:13;;;;;;;7.40;2.85;;;;;;;;;;5077355;28;20673;-59
2023/10/05 14:46:40;;;;;;;7.25;2.78;;;;;;;;;;5070789;28;20059;-61
2023/10/05 14:49:09;;;;;;;8.30;2.55;;;;;;;;;;5075879;28;20609;-60
2023/10/05 14:51:36;;;;;;;6.10;2.50;;;;;;;;;;5081223;28;20422;-60
2023/10/05 14:54:05;;;;;;;9.43;3.10;;;;;;;;;;5079349;28;20064;-60
2023/10/05 14:56:32;;;;;;;6.93;1.98;;;;;;;;;;5079077;28;20052;-59
2023/10/05 14:58:59;;;;;;;5.80;2.22;;;;;;;;;;5075833;28;20052;-60
2023/10/05 15:01:25;;;;;;;6.70;2.83;;;;;;;;;;5064529;28;20499;-59
2023/10/05 15:03:52;;;;;;;3.58;2.05;;;;;;;;;;5082286;28;20053;-60
2023/10/05 15:06:18;;;;;;;8.70;2.50;;;;;;;;;;5081471;28;20374;-60
2023/10/05 15:08:48;;;;;;;5.00;2.08;;;;;;;;;;5088331;28;20524;-59
2023/10/05 15:11:15;;;;;;;6.97;2.60;;;;;;;;;;5082412;27;20127;-60
2023/10/05 15:13:41;;;;;;;6.05;2.08;;;;;;;;;;5073051;28;20155;-61
2023/10/05 15:16:09;;;;;;;6.85;2.17;;;;;;;;;;5069211;28;20493;-60
2023/10/05 15:18:36;;;;;;;5.30;2.10;;;;;;;;;;5075073;28;20158;-59
2023/10/05 15:21:02;;;;;;;7.18;2.88;;;;;;;;;;5071167;28;20057;-59
2023/10/05 15:23:29;;;;;;;6.55;2.72;;;;;;;;;;5080963;28;20407;-59
2023/10/05 15:25:56;;;;;;;4.30;2.30;;;;;;;;;;5082106;28;20068;-60
2023/10/05 15:28:24;;;;;;;5.72;2.20;;;;;;;;;;5076782;28;20478;-59